createdAt,value
2022-08-04T13:40:55.070Z,29.85
2022-08-04T13:44:18.033Z,29.84
2022-08-04T13:46:57.612Z,29.84
2022-08-04T13:49:43.074Z,29.88
2022-08-04T13:52:18.942Z,29.81
2022-08-04T13:54:53.493Z,29.93
2022-08-04T13:57:33.771Z,29.96
2022-08-04T14:00:10.838Z,29.82
2022-08-04T14:02:52.570Z,29.88
2022-08-04T14:05:29.518Z,29.88
2022-08-04T14:08:26.794Z,29.86
2022-08-04T14:11:00.491Z,29.93
2022-08-04T14:13:41.977Z,30.00
2022-08-04T14:16:23.216Z,29.91
2022-08-04T14:19:02.824Z,29.78
2022-08-04T14:21:39.214Z,29.77
2022-08-04T14:24:10.320Z,29.86
2022-08-04T14:26:40.684Z,29.78
2022-08-04T14:29:26.657Z,29.85
2022-08-04T14:32:14.670Z,29.99
2022-08-04T14:34:48.437Z,30.07
2022-08-04T14:37:23.473Z,30.12
2022-08-04T14:40:18.439Z,30.14
2022-08-04T14:42:55.238Z,30.19
2022-08-04T14:45:54.843Z,30.21
2022-08-04T14:48:25.797Z,30.22
2022-08-04T14:50:57.013Z,30.25
2022-08-04T14:53:29.012Z,30.23
2022-08-04T14:56:03.384Z,30.27
2022-08-04T14:58:39.200Z,30.30
2022-08-04T15:01:12.955Z,30.31
2022-08-04T15:03:49.650Z,30.34
2022-08-04T15:06:31.445Z,30.29
2022-08-04T15:09:09.230Z,30.29
2022-08-04T15:11:43.459Z,30.30
2022-08-04T15:14:18.540Z,30.27
2022-08-04T15:17:07.343Z,30.30
2022-08-04T15:19:55.702Z,30.32
2022-08-04T15:22:26.736Z,30.37
2022-08-04T15:24:57.417Z,30.39
2022-08-04T15:27:31.429Z,30.39
2022-08-04T15:30:11.254Z,30.46
2022-08-04T15:32:46.845Z,30.46
2022-08-04T15:35:38.795Z,30.44
2022-08-04T15:38:27.836Z,30.43
2022-08-04T15:41:12.770Z,30.46
2022-08-04T15:44:25.857Z,30.42
2022-08-04T15:47:15.078Z,30.33
2022-08-04T15:49:47.212Z,30.31
2022-08-04T15:52:21.728Z,30.30
2022-08-04T15:55:12.351Z,30.31
2022-08-04T15:58:03.679Z,30.29
2022-08-04T16:00:57.866Z,30.29
2022-08-04T16:04:00.563Z,30.30
2022-08-04T16:06:31.466Z,30.27
2022-08-04T16:09:02.491Z,30.25
2022-08-04T16:11:34.491Z,30.29
2022-08-04T16:14:05.133Z,30.25
2022-08-04T16:16:47.198Z,30.26
2022-08-04T16:19:22.778Z,30.22
2022-08-04T16:21:56.307Z,30.23
2022-08-04T16:24:33.595Z,30.22
2022-08-04T16:27:14.628Z,30.20
2022-08-04T16:29:46.666Z,30.20
2022-08-04T16:32:18.970Z,30.19
2022-08-04T16:34:56.265Z,30.20
2022-08-04T16:37:40.614Z,30.17
2022-08-04T16:40:46.617Z,30.18
2022-08-04T16:43:23.026Z,30.15
2022-08-04T16:45:57.328Z,30.13
2022-08-04T16:48:36.856Z,30.13
2022-08-04T16:51:09.380Z,30.13
2022-08-04T16:53:59.191Z,30.06
2022-08-04T16:56:36.656Z,30.08
2022-08-04T16:59:12.299Z,30.13
2022-08-04T17:01:50.041Z,30.11
2022-08-04T17:04:20.690Z,30.13
2022-08-04T17:06:51.456Z,30.11
2022-08-04T17:09:26.885Z,30.13
2022-08-04T17:12:00.101Z,30.12
2022-08-04T17:14:31.765Z,30.10
2022-08-04T17:17:04.235Z,30.12
2022-08-04T17:19:39.764Z,30.06
2022-08-04T17:22:11.530Z,30.08
2022-08-04T17:24:42.860Z,30.08
2022-08-04T17:28:20.141Z,30.07
2022-08-04T17:30:04.422Z,30.04
2022-08-04T17:32:35.525Z,30.04
2022-08-04T17:35:11.353Z,30.03
2022-08-04T17:37:53.173Z,30.00
2022-08-04T17:40:25.972Z,30.00
2022-08-04T17:44:04.923Z,30.05
2022-08-04T17:46:29.365Z,30.05
2022-08-04T17:49:18.520Z,30.03
2022-08-04T17:52:04.199Z,30.02
2022-08-04T17:54:43.399Z,30.02
2022-08-04T17:57:21.596Z,30.04
2022-08-04T17:59:59.329Z,30.02
2022-08-04T18:02:34.842Z,30.04
2022-08-04T18:05:11.320Z,30.04
2022-08-04T18:08:37.720Z,30.01
2022-08-04T18:10:55.147Z,29.99
2022-08-04T18:13:42.932Z,29.95
2022-08-04T18:16:22.550Z,30.02
2022-08-04T18:19:13.655Z,30.00
2022-08-04T18:21:46.429Z,30.00
2022-08-04T18:24:55.645Z,30.01
2022-08-04T18:27:29.898Z,30.05
2022-08-04T18:30:34.632Z,30.06
2022-08-04T18:33:24.531Z,30.08
2022-08-04T18:36:33.427Z,30.08
2022-08-04T18:38:32.520Z,30.09
2022-08-04T18:41:02.780Z,30.07
2022-08-04T18:43:41.040Z,30.05
2022-08-04T18:46:15.110Z,30.06
2022-08-04T18:48:52.405Z,30.03
2022-08-04T18:51:24.938Z,30.03
2022-08-04T18:54:01.440Z,30.02
2022-08-04T18:56:34.143Z,30.02
2022-08-04T18:59:10.225Z,30.05
2022-08-04T19:02:12.382Z,30.07
2022-08-04T19:04:36.750Z,30.11
2022-08-04T19:07:29.207Z,30.08
2022-08-04T19:09:59.882Z,30.07
2022-08-04T19:12:30.602Z,30.08
2022-08-04T19:15:10.630Z,30.06
2022-08-04T19:17:54.261Z,30.05
2022-08-04T19:20:31.450Z,30.06
2022-08-04T19:24:10.272Z,30.06
2022-08-04T19:26:01.196Z,30.01
2022-08-04T19:28:40.023Z,30.02
2022-08-04T19:31:11.781Z,30.01
2022-08-04T19:36:38.551Z,30.00
2022-08-04T19:39:16.490Z,30.04
2022-08-04T19:42:06.055Z,30.02
2022-08-04T19:44:37.002Z,29.99
2022-08-04T19:48:16.474Z,29.97
2022-08-04T19:50:10.554Z,29.98
2022-08-04T19:52:51.587Z,29.98
2022-08-04T19:55:37.178Z,30.05
2022-08-04T19:58:10.232Z,30.06
2022-08-04T20:00:44.825Z,30.07
2022-08-04T20:03:21.982Z,30.08
2022-08-04T20:05:55.302Z,30.08
2022-08-04T20:08:32.639Z,30.13
2022-08-04T20:11:03.106Z,30.12
2022-08-04T20:13:37.679Z,30.07
2022-08-04T20:16:30.449Z,30.11
2022-08-04T20:19:04.118Z,30.05
2022-08-04T20:21:56.180Z,29.99
2022-08-04T20:24:37.648Z,30.02
2022-08-04T20:27:16.237Z,30.07
2022-08-04T20:29:49.902Z,30.08
2022-08-04T20:32:26.211Z,30.06
2022-08-04T20:34:58.577Z,30.00
2022-08-04T20:37:54.785Z,29.98
2022-08-04T20:40:20.289Z,30.03
2022-08-04T20:42:53.542Z,29.97
2022-08-04T20:45:24.171Z,30.02
2022-08-04T20:48:14.425Z,29.97
2022-08-04T20:50:51.683Z,29.96
2022-08-04T20:53:21.884Z,29.94
2022-08-04T20:56:12.070Z,29.92
2022-08-04T20:58:49.774Z,29.94
2022-08-04T21:01:20.096Z,29.94
2022-08-04T21:04:28.209Z,29.93
2022-08-04T21:06:59.914Z,29.93
2022-08-04T21:09:37.859Z,29.88
2022-08-04T21:12:27.463Z,29.89
2022-08-04T21:15:13.311Z,29.89
2022-08-04T21:17:59.597Z,29.92
2022-08-04T21:20:39.496Z,29.90
2022-08-04T21:23:12.949Z,29.87
2022-08-04T21:25:43.786Z,29.91
2022-08-04T21:28:20.284Z,29.88
2022-08-04T21:30:54.919Z,29.86
2022-08-04T21:36:21.014Z,29.87
2022-08-04T21:38:52.501Z,29.87
2022-08-04T21:41:24.622Z,29.89
2022-08-04T21:43:59.096Z,29.92
2022-08-04T21:46:32.047Z,29.93
2022-08-04T21:49:04.414Z,29.92
2022-08-04T21:51:59.350Z,29.94
2022-08-04T21:54:31.279Z,29.98
2022-08-04T21:57:03.422Z,30.00
2022-08-04T21:59:33.971Z,29.97
2022-08-04T22:02:17.309Z,29.94
2022-08-04T22:04:48.369Z,29.95
2022-08-04T22:07:22.995Z,29.99
2022-08-04T22:10:00.339Z,30.02
2022-08-04T22:12:34.120Z,29.96
2022-08-04T22:16:04.032Z,29.93
2022-08-04T22:17:57.093Z,29.90
2022-08-04T22:20:28.353Z,29.91
2022-08-04T22:23:15.723Z,29.87
2022-08-04T22:25:55.755Z,29.93
2022-08-04T22:28:28.978Z,29.92
2022-08-04T22:30:59.907Z,29.88
2022-08-04T22:33:55.298Z,29.95
2022-08-04T22:36:26.972Z,29.96
2022-08-04T22:39:06.577Z,30.01
2022-08-04T22:42:03.098Z,29.99
2022-08-04T22:44:33.076Z,29.94
2022-08-04T22:47:06.737Z,29.95
2022-08-04T22:49:39.895Z,29.91
2022-08-04T22:52:17.009Z,29.88
2022-08-04T22:54:57.418Z,29.84
2022-08-04T22:57:43.373Z,29.80
2022-08-04T23:00:28.661Z,29.78
2022-08-04T23:02:59.627Z,29.80
